Carmichael, Mississippi
Current Conditions -  °F | °C
As of 5:53 AM on Friday 19 Dec 2014 (Local Time) from KHBG Reporting Station
Overcast Overcast  
Wind Chill: 50°   Ceiling: 1900
Heat Index: 50°   Visibility: 10mi
Dew Point: 45°   Wind: 5mph
Humidity: 83%   Direction: 50°NE
Pressure: 30.15"   Gusts: NA
Location:  31.0408°N, 88.8997°W
Report Text: KHBG 191153Z AUTO 05004KT 10SM OVC019 10/07 A3015 RMK AO2 SLP209 70013 T01000072 10106 20100 53000
Loading
Personal Weather Stations






























Interactive Weather Map New forecast layout! Learn more

10-Day Weather Forecast

Advertisements
Track Severe Weather on mobile